Latest Weather Observations for Combienbar

IDV60801

Issued at 7:52 am EDT Saturday 28 November 2020 (issued every 10 minutes, with the page automatically refreshed every 10 minutes)

About weather observations | Map of weather stations | Latest weather observations for VIC | Other Formats
Station Details ID: 084143 Name: COMBIENBAR AWS Lat: -37.34 Lon: 149.02 Height: 640.0 m
Data from the previous 72 hours. | See also: Recent months at Combienbar
Date/Time
EDT
Temp
°C
App
Temp
°C
Dew
Point
°C
Rel
Hum
%
Delta-T
°C
Wind Press
QNH
hPa
Press
MSL
hPa
Rain since
9am
mm
Dir  Spd
km/h
Gust
km/h
Spd
kts
Gust
kts
28/07:30am 20.4 20.8 12.4 60 4.6 SW 2 6 1 3 1010.7 1009.0 0.0
28/07:00am 21.2 20.8 11.2 53 5.7 SW 4 6 2 3 1010.6 1008.9 0.0
28/06:30am 22.1 21.0 10.6 48 6.5 WSW 7 13 4 7 1010.9 1009.2 0.0
28/06:00am 23.1 21.9 10.2 44 7.3 WSW 7 13 4 7 1010.7 1009.0 0.0
28/05:30am 24.2 22.4 9.4 39 8.3 WSW 9 26 5 14 1009.9 1008.1 0.0
28/05:00am 28.0 24.9 7.3 27 11.4 NW 13 30 7 16 1008.3 1006.5 0.0
28/04:30am 27.7 25.6 8.1 29 10.9 NW 9 24 5 13 1008.5 1006.7 0.0
28/04:00am 26.8 24.0 8.7 32 10.2 WNW 13 39 7 21 1009.4 1007.7 0.0
28/03:30am 27.8 23.2 6.6 26 11.5 NNW 20 43 11 23 1008.7 1006.9 0.0
28/03:00am 27.4 22.3 6.2 26 11.5 NNW 22 46 12 25 1008.8 1007.1 0.0
28/02:30am 26.5 21.9 6.5 28 10.8 N 20 37 11 20 1008.9 1007.2 0.0
28/02:00am 26.7 21.8 6.7 28 10.9 N 22 37 12 20 1009.1 1007.4 0.0
28/01:30am 27.1 22.5 6.5 27 11.1 N 20 39 11 21 1009.6 1007.8 0.0
28/01:00am 27.2 22.7 7.1 28 11.0 N 20 39 11 21 1010.1 1008.3 0.0
28/12:30am 26.5 21.7 7.5 30 10.4 N 22 37 12 20 1010.4 1008.7 0.0
28/12:00am 26.7 22.3 6.7 28 10.8 N 19 35 10 19 1010.8 1009.1 0.0
 
Date/Time
EDT
Temp
°C
App
Temp
°C
Dew
Point
°C
Rel
Hum
%
Delta-T
°C
Wind Press
QNH
hPa
Press
MSL
hPa
Rain since
9am
mm
Dir  Spd
km/h
Gust
km/h
Spd
kts
Gust
kts
27/11:30pm 26.8 24.5 7.3 29 10.7 N 9 20 5 11 1011.5 1009.7 0.0
27/11:00pm 26.2 23.3 8.2 32 10.0 NNW 13 24 7 13 1011.9 1010.2 0.0
27/10:30pm 26.2 23.9 7.3 30 10.3 WSW 9 22 5 12 1012.4 1010.7 0.0
27/10:00pm 27.2 24.8 7.1 28 11.0 WNW 9 22 5 12 1012.5 1010.8 0.0
27/09:30pm 27.4 24.4 7.8 29 10.9 WNW 13 33 7 18 1012.6 1010.9 0.0
27/09:00pm 26.0 24.8 10.2 37 9.1 WNW 7 19 4 10 1012.6 1010.9 0.0
27/08:30pm 23.4 24.6 14.9 59 5.2 NNE 2 6 1 3 1012.9 1011.1 0.0
27/08:00pm 23.6 24.9 15.1 59 5.2 NNE 2 7 1 4 1012.7 1011.0 0.0
27/07:30pm 24.7 25.6 15.1 55 5.9 NNE 4 9 2 5 1012.9 1011.1 0.0
27/07:00pm 25.6 27.0 14.4 50 6.9 CALM 0 0 0 0 1012.7 1011.0 0.0
27/06:30pm 27.8 28.5 14.4 43 8.3 SW 4 6 2 3 1012.3 1010.6 0.0
27/06:00pm 28.7 29.4 14.5 42 8.8 SSW 4 6 2 3 1012.3 1010.6 0.0
27/05:30pm 28.8 29.0 13.1 38 9.5 SSW 4 7 2 4 1012.3 1010.6 0.0
27/05:00pm 29.3 29.4 13.9 39 9.5 SSW 6 7 3 4 1012.5 1010.8 0.0
27/04:30pm 29.3 29.5 14.7 41 9.1 SSW 7 11 4 6 1012.6 1010.9 0.0
27/04:00pm 29.2 29.1 13.8 39 9.5 SSW 7 9 4 5 1012.6 1010.9 0.0
27/03:30pm 29.3 29.5 14.7 41 9.1 SSW 7 11 4 6 1012.9 1011.1 0.0
27/03:00pm 29.7 29.7 14.3 39 9.6 SSW 7 11 4 6 1013.2 1011.5 0.0
27/02:30pm 29.8 29.9 14.0 38 9.8 SSW 6 11 3 6 1013.2 1011.5 0.0
27/02:00pm 29.1 28.9 12.9 37 9.8 SSW 6 9 3 5 1013.5 1011.8 0.0
27/01:30pm 29.0 29.3 14.4 41 9.0 SSW 6 7 3 4 1013.8 1012.1 0.0
27/01:00pm 28.2 28.4 14.8 44 8.3 SSW 7 11 4 6 1013.8 1012.1 0.0
27/12:30pm 28.0 28.7 14.6 44 8.3 WNW 4 9 2 5 1014.2 1012.5 0.0
27/12:00pm 27.0 27.0 13.7 44 8.1 NE 6 15 3 8 1014.4 1012.8 0.0
27/11:30am 25.8 26.4 14.3 49 7.0 N 4 9 2 5 1015.0 1013.3 0.0
27/11:00am 24.6 24.8 14.7 54 6.1 NNE 7 17 4 9 1015.2 1013.5 0.0
27/10:30am 23.9 23.8 14.9 57 5.5 NE 9 17 5 9 1015.4 1013.7 0.0
27/10:00am 22.8 22.2 14.6 60 5.0 NNE 11 17 6 9 1015.5 1013.8 0.0
27/09:30am 21.3 20.7 13.5 61 4.6 NNE 9 20 5 11 1015.8 1014.2 0.0
27/09:00am 19.5 18.8 13.2 67 3.7 NNE 9 17 5 9 1016.2 1014.5 0.0
27/08:30am 18.0 16.4 12.9 72 2.9 NNE 13 24 7 13 1015.9 1014.3 0.0
27/08:00am 16.7 14.8 11.8 73 2.8 NNE 13 24 7 13 1016.0 1014.4 0.0
27/07:30am 15.2 12.7 11.0 76 2.3 NNE 15 26 8 14 1015.8 1014.2 0.0
27/07:00am 13.9 11.1 10.1 78 2.0 NNE 15 30 8 16 1015.6 1013.9 0.0
27/06:30am 12.8 9.9 9.8 82 1.6 NNE 15 26 8 14 1015.7 1014.1 0.0
27/06:00am 11.6 9.0 9.3 86 1.2 NNE 13 22 7 12 1016.0 1014.4 0.0
27/05:30am 10.4 8.8 7.8 84 1.3 NE 6 11 3 6 1016.5 1014.8 0.0
27/05:00am 10.4 8.1 7.6 83 1.4 NNE 9 19 5 10 1016.9 1015.2 0.0
27/04:30am 10.7 8.9 8.1 84 1.3 NNE 7 13 4 7 1017.4 1015.8 0.0
27/04:00am 10.8 9.2 8.0 83 1.4 NNE 6 9 3 5 1017.7 1016.1 0.0
27/03:30am 11.0 10.2 8.1 82 1.5 NNE 2 6 1 3 1018.1 1016.4 0.0
27/03:00am 10.9 10.1 8.1 83 1.4 NNE 2 6 1 3 1018.4 1016.8 0.0
27/02:30am 10.9 9.1 8.0 82 1.5 NNE 7 11 4 6 1018.8 1017.2 0.0
27/02:00am 10.7 9.1 7.9 83 1.4 NNE 6 9 3 5 1019.2 1017.6 0.0
27/01:30am 10.7 9.5 8.1 84 1.3 NNE 4 7 2 4 1019.4 1017.8 0.0
27/01:00am 10.7 9.8 7.6 81 1.5 NNE 2 4 1 2 1019.9 1018.3 0.0
27/12:30am 11.1 10.5 7.6 79 1.8 CALM 0 0 0 0 1020.1 1018.5 0.0
27/12:00am 11.2 10.7 7.7 79 1.8 CALM 0 4 0 2 1020.2 1018.6 0.0
 
Date/Time
EDT
Temp
°C
App
Temp
°C
Dew
Point
°C
Rel
Hum
%
Delta-T
°C
Wind Press
QNH
hPa
Press
MSL
hPa
Rain since
9am
mm
Dir  Spd
km/h
Gust
km/h
Spd
kts
Gust
kts
26/11:30pm 11.0 10.3 7.1 77 1.9 CALM 0 0 0 0 1020.3 1018.7 0.0
26/11:00pm 11.2 10.1 7.1 76 2.0 WNW 2 4 1 2 1020.7 1019.1 0.0
26/10:30pm 11.3 10.7 7.2 76 2.0 CALM 0 0 0 0 1020.8 1019.2 0.0
26/10:00pm 11.3 10.6 7.0 75 2.1 CALM 0 0 0 0 1020.1 1018.5 0.0
26/09:30pm 11.3 10.9 8.3 82 1.5 CALM 0 0 0 0 1019.9 1018.3 0.0
26/09:00pm 11.5 11.3 9.1 85 1.2 CALM 0 0 0 0 1019.6 1017.9 0.0
26/08:30pm 11.5 11.3 9.2 86 1.2 CALM 0 0 0 0 1019.3 1017.7 0.0
26/08:00pm 11.7 11.3 9.6 87 1.1 SW 2 4 1 2 1019.1 1017.5 0.0
26/07:30pm 11.8 11.5 10.0 89 1.0 SSW 2 4 1 2 1018.9 1017.3 0.0
26/07:00pm 11.8 11.1 10.2 90 0.8 SSW 4 6 2 3 1018.5 1016.9 0.0
26/06:30pm 12.0 11.0 10.4 90 0.9 SW 6 9 3 5 1018.1 1016.4 0.0
26/06:00pm 12.0 11.2 10.9 93 0.6 SSW 6 7 3 4 1017.6 1016.0 0.0
26/05:30pm 11.9 11.1 11.0 94 0.5 SSW 6 9 3 5 1017.4 1015.8 0.0
26/05:00pm 12.0 11.1 11.2 95 0.4 SSW 7 9 4 5 1017.1 1015.5 0.0
26/04:30pm 12.1 11.2 11.2 94 0.5 SSW 7 11 4 6 1016.9 1015.2 0.0
26/04:00pm 12.9 11.6 11.1 89 1.0 SSW 9 13 5 7 1016.6 1014.9 0.0
26/03:30pm 13.6 12.7 11.5 87 1.2 SSW 7 11 4 6 1016.4 1014.7 0.0
26/03:00pm 13.8 12.6 11.7 87 1.2 SSW 9 13 5 7 1016.3 1014.6 0.0
26/02:30pm 13.7 12.6 11.8 88 1.1 SSW 9 13 5 7 1016.0 1014.4 0.0
26/02:00pm 14.1 13.0 12.1 88 1.1 SSW 9 13 5 7 1016.0 1014.4 0.0
26/01:30pm 15.0 14.0 12.3 84 1.5 SSW 9 15 5 8 1015.9 1014.3 0.0
26/01:00pm 17.0 16.2 12.9 77 2.4 SSW 9 11 5 6 1015.4 1013.7 0.0
26/12:30pm 17.7 17.5 13.0 74 2.7 SSW 6 11 3 6 1015.2 1013.5 0.0
26/12:00pm 18.2 18.1 13.9 76 2.5 SW 7 11 4 6 1015.0 1013.3 0.0
26/11:30am 18.5 18.5 14.2 76 2.5 SSW 7 11 4 6 1015.0 1013.3 0.0
26/11:00am 19.7 19.8 14.5 72 3.1 SSW 7 13 4 7 1014.4 1012.8 0.0
26/10:30am 22.3 23.2 16.1 68 3.8 SSW 6 11 3 6 1014.1 1012.4 0.0
26/10:00am 22.6 23.6 15.4 64 4.4 SSW 4 9 2 5 1013.7 1012.0 0.0
26/09:30am 24.2 25.1 15.1 56 5.6 SSW 4 7 2 4 1013.3 1011.6 0.0
26/09:00am 23.9 23.6 11.6 46 7.1 WSW 4 9 2 5 1013.2 1011.5 0.0
26/08:30am 23.6 23.3 11.3 46 7.1 WSW 4 9 2 5 1013.1 1011.4 0.0
26/08:00am 23.4 23.3 12.1 49 6.6 WNW 4 9 2 5 1012.7 1011.0 0.0
26/07:30am 22.4 21.8 11.8 51 6.1 NW 6 13 3 7 1012.3 1010.6 0.0
26/07:00am 21.6 20.1 11.9 54 5.6 NNW 11 19 6 10 1012.1 1010.4 0.0
26/06:30am 20.6 19.7 12.6 60 4.7 NW 9 20 5 11 1011.9 1010.2 0.0
26/06:00am 19.7 19.1 13.4 67 3.7 NW 9 24 5 13 1011.5 1009.7 0.0
26/05:30am 19.1 19.4 13.5 70 3.3 W 4 9 2 5 1011.4 1009.6 0.0
26/05:00am 19.3 19.1 13.5 69 3.4 NW 7 17 4 9 1011.2 1009.4 0.0
26/04:30am 18.9 19.7 13.7 72 3.1 NNW 2 13 1 7 1011.0 1009.3 0.0
26/04:00am 18.7 19.1 13.8 73 2.9 NW 4 9 2 5 1011.3 1009.5 0.0
26/03:30am 18.1 19.1 13.2 73 2.8 CALM 0 0 0 0 1011.4 1009.6 0.0
26/03:00am 18.3 19.4 13.4 73 2.9 CALM 0 0 0 0 1011.7 1010.0 0.0
26/02:30am 18.3 19.1 12.7 70 3.2 CALM 0 2 0 1 1011.8 1010.1 0.0
26/02:00am 18.8 19.7 12.8 68 3.5 CALM 0 2 0 1 1011.8 1010.1 0.0
26/01:30am 18.3 19.0 12.3 68 3.4 CALM 0 0 0 0 1011.9 1010.2 0.0
26/01:00am 18.7 19.4 12.2 66 3.7 CALM 0 0 0 0 1012.3 1010.6 0.0
26/12:30am 18.6 19.3 12.1 66 3.7 CALM 0 2 0 1 1012.7 1011.0 0.0
26/12:00am 18.5 19.3 12.5 68 3.5 CALM 0 0 0 0 1013.1 1011.4 0.0
 
Date/Time
EDT
Temp
°C
App
Temp
°C
Dew
Point
°C
Rel
Hum
%
Delta-T
°C
Wind Press
QNH
hPa
Press
MSL
hPa
Rain since
9am
mm
Dir  Spd
km/h
Gust
km/h
Spd
kts
Gust
kts
25/11:30pm 18.2 18.7 11.7 66 3.7 CALM 0 0 0 0 1013.4 1011.7 0.0
25/11:00pm 17.7 18.2 11.5 67 3.5 CALM 0 0 0 0 1013.4 1011.7 0.0
25/10:30pm 17.6 18.3 12.1 70 3.1 CALM 0 0 0 0 1013.5 1011.8 0.0
25/10:00pm 17.6 18.3 12.1 70 3.1 CALM 0 0 0 0 1013.5 1011.8 0.0
25/09:30pm 17.9 18.3 12.6 71 3.0 SSW 2 4 1 2 1013.4 1011.7 0.0
25/09:00pm 18.0 18.7 12.2 69 3.3 CALM 0 4 0 2 1012.9 1011.1 0.0
25/08:30pm 18.3 18.5 13.2 72 3.0 SSW 4 6 2 3 1012.5 1010.8 0.0
25/08:00pm 19.3 19.3 13.7 70 3.3 SSW 6 9 3 5 1012.3 1010.6 0.0
25/07:30pm 21.1 21.2 13.8 63 4.3 SSW 6 11 3 6 1011.8 1010.1 0.0
25/07:00pm 21.5 21.8 14.6 65 4.2 SSW 6 9 3 5 1011.2 1009.4 0.0
25/06:30pm 22.8 23.3 14.1 58 5.2 SSW 4 9 2 5 1010.7 1009.0 0.0
25/06:00pm 24.5 25.0 15.1 55 5.8 SSW 6 7 3 4 1010.5 1008.8 0.0
25/05:30pm 24.4 24.5 14.5 54 6.0 SSW 7 11 4 6 1010.4 1008.7 0.0
25/05:00pm 26.3 26.7 15.4 51 6.8 SSW 7 13 4 7 1010.2 1008.5 0.0
25/04:30pm 26.3 26.5 14.7 48 7.2 SW 7 11 4 6 1010.1 1008.3 0.0
25/04:00pm 26.4 26.8 14.8 49 7.2 SSW 6 9 3 5 1010.2 1008.5 0.0
25/03:30pm 26.9 27.4 15.0 48 7.4 SSW 6 7 3 4 1010.3 1008.6 0.0
25/03:00pm 26.1 26.6 13.9 47 7.4 SSW 4 7 2 4 1010.4 1008.7 0.0
25/02:30pm 25.9 26.3 14.7 50 6.9 SSW 6 7 3 4 1010.7 1009.0 0.0
25/02:00pm 25.1 25.6 13.9 49 6.8 S 4 6 2 3 1010.8 1009.1 0.0
25/01:30pm 24.5 24.9 13.7 51 6.5 SSW 4 7 2 4 1011.3 1009.5 0.0
25/01:00pm 24.1 24.7 14.2 54 6.0 SSW 4 7 2 4 1011.7 1010.0 0.0
25/12:30pm 23.2 23.6 13.7 55 5.7 SSW 4 6 2 3 1012.0 1010.3 0.0
25/12:00pm 22.6 22.9 13.4 56 5.5 SSW 4 6 2 3 1012.4 1010.7 0.0
25/11:30am 22.1 22.4 13.5 58 5.1 SSW 4 6 2 3 1012.7 1011.0 0.0
25/11:00am 21.8 22.2 12.6 56 5.4 WNW 2 4 1 2 1013.0 1011.3 0.0
25/10:30am 20.8 21.1 12.2 58 5.0 W 2 7 1 4 1013.2 1011.5 0.0
25/10:00am 19.7 19.9 11.7 60 4.6 E 2 6 1 3 1013.4 1011.7 0.0
25/09:30am 19.4 19.9 12.9 66 3.8 N 2 7 1 4 1013.8 1012.1 0.0
25/09:00am 18.3 18.5 11.8 66 3.7 ESE 2 4 1 2 1014.0 1012.3 0.0
25/08:30am 16.1 15.0 10.0 67 3.3 NNE 6 19 3 10 1014.1 1012.4 0.0
25/08:00am 15.4 15.0 11.2 76 2.3 NNE 4 6 2 3 1014.1 1012.4 0.0

Other formats

Comma delimited format used in spreadsheet applications
http://www.bom.gov.au/fwo/IDV60801/IDV60801.94914.axf

JavaScript Object Notation format (JSON) in row-major order
http://www.bom.gov.au/fwo/IDV60801/IDV60801.94914.json

Data quality

Most of these data are generated automatically and are frequently updated. Quality checks on data are not normally performed. It is possible for incorrect values to appear. Refer to information at About Latest Weather Observations and please check the disclaimer before using these data.